Time;durP1;ratioP1;P1;durP2;ratioP2;P2;SDS_P1;SDS_P2;PMS_P1;PMS_P2;Temp;Humidity;BMP_temperature;BMP_pressure;BME280_temperature;BME280_humidity;BME280_pressure;Samples;Min_cycle;Max_cycle;Signal;HPM_P1;HPM_P2
2022/04/23 00:02:17;;;;;;;3.22;3.03;;;;;;;;;;5132307;27;20554;-78
2022/04/23 00:04:45;;;;;;;4.20;3.90;;;;;;;;;;5134190;27;20071;-78
2022/04/23 00:07:13;;;;;;;3.28;3.08;;;;;;;;;;5112909;27;20091;-77
2022/04/23 00:09:40;;;;;;;3.95;3.65;;;;;;;;;;5112227;27;20043;-78
2022/04/23 00:12:08;;;;;;;3.60;3.40;;;;;;;;;;5134045;27;20066;-77
2022/04/23 00:14:35;;;;;;;3.97;3.60;;;;;;;;;;5112484;27;20043;-78
2022/04/23 00:17:03;;;;;;;4.03;3.70;;;;;;;;;;5112419;27;20043;-77
2022/04/23 00:19:31;;;;;;;3.90;3.70;;;;;;;;;;5134804;27;20066;-77
2022/04/23 00:21:58;;;;;;;3.70;3.47;;;;;;;;;;5112877;27;20085;-77
2022/04/23 00:24:26;;;;;;;3.92;3.63;;;;;;;;;;5112579;27;20047;-77
2022/04/23 00:26:53;;;;;;;4.20;3.92;;;;;;;;;;5132100;27;20428;-77
2022/04/23 00:29:21;;;;;;;4.03;3.72;;;;;;;;;;5128840;27;20134;-77
2022/04/23 00:31:48;;;;;;;4.28;3.97;;;;;;;;;;5082713;27;20425;-78
2022/04/23 00:34:15;;;;;;;4.80;4.40;;;;;;;;;;5094846;27;20063;-78
2022/04/23 00:36:43;;;;;;;4.03;3.72;;;;;;;;;;5107641;27;20502;-78
2022/04/23 00:39:11;;;;;;;3.55;3.35;;;;;;;;;;5111585;27;20039;-78
2022/04/23 00:41:51;;;;;;;4.82;4.38;;;;;;;;;;5130346;27;20437;-78
2022/04/23 00:44:19;;;;;;;4.22;3.90;;;;;;;;;;5134622;27;20046;-78
2022/04/23 00:46:46;;;;;;;5.28;4.78;;;;;;;;;;5116150;27;20049;-77
2022/04/23 00:49:14;;;;;;;4.95;4.60;;;;;;;;;;5101701;27;20421;-78
2022/04/23 00:51:41;;;;;;;4.22;3.92;;;;;;;;;;5130369;27;20099;-77
2022/04/23 00:54:09;;;;;;;5.15;4.78;;;;;;;;;;5132883;27;20096;-77
2022/04/23 00:56:37;;;;;;;5.03;4.63;;;;;;;;;;5135375;27;20035;-77
2022/04/23 00:59:07;;;;;;;4.65;4.30;;;;;;;;;;5134007;27;20039;-77
2022/04/23 01:01:34;;;;;;;5.05;4.65;;;;;;;;;;5113665;27;20038;-76
2022/04/23 01:04:02;;;;;;;5.00;4.50;;;;;;;;;;5135502;27;20035;-76
2022/04/23 01:06:36;;;;;;;4.40;4.10;;;;;;;;;;5131133;27;20045;-77
2022/04/23 01:09:08;;;;;;;4.25;3.92;;;;;;;;;;5134003;27;20461;-77
2022/04/23 01:11:36;;;;;;;5.40;4.90;;;;;;;;;;5131847;27;20043;-77
2022/04/23 01:14:04;;;;;;;4.60;4.30;;;;;;;;;;5136340;27;20345;-77
2022/04/23 01:16:31;;;;;;;5.95;5.47;;;;;;;;;;5135016;27;20460;-77
2022/04/23 01:18:59;;;;;;;4.75;4.45;;;;;;;;;;5132923;27;20401;-78
2022/04/23 01:21:27;;;;;;;5.75;5.25;;;;;;;;;;5131283;27;20043;-77
2022/04/23 01:23:58;;;;;;;5.40;5.00;;;;;;;;;;5114197;27;20142;-80
2022/04/23 01:26:27;;;;;;;4.50;4.20;;;;;;;;;;5130119;27;20494;-78
2022/04/23 01:28:55;;;;;;;6.85;6.25;;;;;;;;;;5136499;27;20458;-78
2022/04/23 01:31:23;;;;;;;5.55;5.05;;;;;;;;;;5113757;27;20072;-78
2022/04/23 01:33:50;;;;;;;5.88;5.40;;;;;;;;;;5131358;27;20201;-77
2022/04/23 01:36:18;;;;;;;4.97;4.68;;;;;;;;;;5130343;27;20123;-77
2022/04/23 01:38:46;;;;;;;5.40;5.00;;;;;;;;;;5136890;27;20054;-77
2022/04/23 01:41:14;;;;;;;6.13;5.63;;;;;;;;;;5137938;27;20588;-77
2022/04/23 01:43:41;;;;;;;6.20;5.70;;;;;;;;;;5138898;27;20056;-77
2022/04/23 01:46:09;;;;;;;5.68;5.18;;;;;;;;;;5116874;27;20121;-77
2022/04/23 01:48:37;;;;;;;5.20;4.80;;;;;;;;;;5140231;27;20034;-78
2022/04/23 01:51:04;;;;;;;5.07;4.68;;;;;;;;;;5116854;27;20045;-78
2022/04/23 01:53:32;;;;;;;5.55;5.07;;;;;;;;;;5137901;27;20090;-78
2022/04/23 01:55:59;;;;;;;6.25;5.65;;;;;;;;;;5136649;27;20076;-78
2022/04/23 01:58:26;;;;;;;5.57;5.07;;;;;;;;;;5139515;27;20103;-78
2022/04/23 02:00:54;;;;;;;6.10;5.50;;;;;;;;;;5115112;27;20498;-78
2022/04/23 02:03:22;;;;;;;6.72;6.22;;;;;;;;;;5139021;27;20038;-78
2022/04/23 02:05:50;;;;;;;5.97;5.47;;;;;;;;;;5133115;27;20035;-78
2022/04/23 02:08:18;;;;;;;6.72;6.18;;;;;;;;;;5123594;27;20050;-77
2022/04/23 02:10:47;;;;;;;6.03;5.53;;;;;;;;;;5138163;27;20486;-78
2022/04/23 02:13:15;;;;;;;6.72;6.18;;;;;;;;;;5120029;27;20077;-77
2022/04/23 02:15:42;;;;;;;6.40;5.90;;;;;;;;;;5136468;27;20441;-78
2022/04/23 02:18:10;;;;;;;7.18;6.53;;;;;;;;;;5132796;27;20066;-78
2022/04/23 02:20:38;;;;;;;6.32;5.80;;;;;;;;;;5134262;27;20039;-78
2022/04/23 02:23:06;;;;;;;5.97;5.43;;;;;;;;;;5132413;27;20035;-78
2022/04/23 02:25:36;;;;;;;6.00;5.50;;;;;;;;;;5135314;27;20502;-78
2022/04/23 02:28:04;;;;;;;7.15;6.55;;;;;;;;;;5134698;27;20483;-78
2022/04/23 02:30:32;;;;;;;7.15;6.55;;;;;;;;;;5119023;27;20065;-78
2022/04/23 02:32:59;;;;;;;6.35;5.85;;;;;;;;;;5114866;27;20047;-78
2022/04/23 02:35:27;;;;;;;6.13;5.63;;;;;;;;;;5117730;27;20474;-78
2022/04/23 02:37:56;;;;;;;8.18;7.38;;;;;;;;;;5134253;27;20089;-78
2022/04/23 02:40:24;;;;;;;6.20;5.70;;;;;;;;;;5119108;27;20126;-78
2022/04/23 02:42:51;;;;;;;7.38;6.78;;;;;;;;;;5116536;27;20085;-78
2022/04/23 02:45:21;;;;;;;7.70;6.57;;;;;;;;;;5131055;27;20170;-78
2022/04/23 02:47:55;;;;;;;6.65;6.07;;;;;;;;;;5115351;27;20047;-78
2022/04/23 02:50:37;;;;;;;6.15;5.70;;;;;;;;;;5118644;27;20545;-78
2022/04/23 02:53:05;;;;;;;6.10;5.60;;;;;;;;;;5113238;27;20488;-78
2022/04/23 02:55:33;;;;;;;7.55;6.95;;;;;;;;;;5137381;27;20041;-78
2022/04/23 02:58:05;;;;;;;6.57;6.05;;;;;;;;;;5136385;27;20384;-78
2022/04/23 03:00:32;;;;;;;;;;;;;;;;;;5116506;27;20035;-78
2022/04/23 03:03:00;;;;;;;6.57;5.97;;;;;;;;;;5136397;27;19953;-78
2022/04/23 03:05:28;;;;;;;7.78;7.07;;;;;;;;;;5102045;27;20688;-78
2022/04/23 03:07:55;;;;;;;7.13;6.28;;;;;;;;;;5138999;27;20039;-78
2022/04/23 03:10:23;;;;;;;7.60;6.88;;;;;;;;;;5134658;27;20043;-78
2022/04/23 03:12:50;;;;;;;7.18;6.50;;;;;;;;;;5112988;27;20100;-78
2022/04/23 03:15:18;;;;;;;7.85;7.25;;;;;;;;;;5134432;27;20050;-78
2022/04/23 03:17:46;;;;;;;7.95;7.15;;;;;;;;;;5135336;27;21791;-78
2022/04/23 03:20:14;;;;;;;9.70;7.57;;;;;;;;;;5136330;27;20149;-78
2022/04/23 03:22:42;;;;;;;8.38;7.55;;;;;;;;;;5113480;27;20454;-78
2022/04/23 03:25:10;;;;;;;9.75;6.97;;;;;;;;;;5117041;27;20046;-78
2022/04/23 03:27:37;;;;;;;7.32;6.63;;;;;;;;;;5137130;27;20050;-78
2022/04/23 03:30:05;;;;;;;8.80;8.00;;;;;;;;;;5117524;27;20053;-78
2022/04/23 03:32:34;;;;;;;7.88;7.07;;;;;;;;;;5132277;27;20069;-78
2022/04/23 03:35:01;;;;;;;8.27;7.50;;;;;;;;;;5135094;27;20042;-78
2022/04/23 03:37:29;;;;;;;8.52;7.72;;;;;;;;;;5112837;27;20130;-78
2022/04/23 03:39:56;;;;;;;8.40;7.70;;;;;;;;;;5141799;27;20462;-78
2022/04/23 03:42:24;;;;;;;7.82;7.13;;;;;;;;;;5132768;27;20039;-78
2022/04/23 03:44:51;;;;;;;8.90;8.10;;;;;;;;;;5132229;27;20071;-78
2022/04/23 03:47:18;;;;;;;8.50;7.70;;;;;;;;;;5136202;27;20118;-78
2022/04/23 03:49:47;;;;;;;8.63;7.82;;;;;;;;;;5140335;27;20685;-78
2022/04/23 03:52:14;;;;;;;11.65;9.30;;;;;;;;;;5130650;27;20067;-78
2022/04/23 03:54:41;;;;;;;11.05;9.95;;;;;;;;;;5122463;27;20073;-78
2022/04/23 03:57:09;;;;;;;9.75;8.85;;;;;;;;;;5126889;27;20134;-78
2022/04/23 03:59:37;;;;;;;11.27;10.10;;;;;;;;;;5119498;27;20066;-78
2022/04/23 04:02:06;;;;;;;12.95;9.52;;;;;;;;;;5110778;27;20038;-78
2022/04/23 04:04:34;;;;;;;11.20;9.00;;;;;;;;;;5131389;27;20442;-78
2022/04/23 04:07:02;;;;;;;11.43;10.40;;;;;;;;;;5079756;27;20167;-78
2022/04/23 04:09:30;;;;;;;10.50;9.27;;;;;;;;;;5136517;27;20035;-78
2022/04/23 04:12:03;;;;;;;12.77;11.18;;;;;;;;;;5134617;27;20035;-78
2022/04/23 04:14:36;;;;;;;12.88;11.48;;;;;;;;;;5099298;27;20042;-78
2022/04/23 04:17:09;;;;;;;13.15;11.20;;;;;;;;;;5138593;27;20035;-78
2022/04/23 04:19:37;;;;;;;12.27;10.98;;;;;;;;;;5121632;27;20035;-78
2022/04/23 04:22:06;;;;;;;15.10;10.77;;;;;;;;;;5139463;27;20135;-78
2022/04/23 04:24:34;;;;;;;13.23;11.88;;;;;;;;;;5105410;27;20108;-78
2022/04/23 04:27:03;;;;;;;12.20;10.93;;;;;;;;;;5134597;27;20122;-78
2022/04/23 04:29:31;;;;;;;12.57;11.25;;;;;;;;;;5126577;27;20034;-78
2022/04/23 04:31:58;;;;;;;14.25;12.68;;;;;;;;;;5136252;27;20027;-78
2022/04/23 04:34:30;;;;;;;14.35;12.80;;;;;;;;;;5132283;27;20454;-78
2022/04/23 04:37:07;;;;;;;15.30;13.38;;;;;;;;;;5122474;27;20039;-78
2022/04/23 04:39:39;;;;;;;15.10;12.55;;;;;;;;;;5135684;27;20117;-77
2022/04/23 04:42:07;;;;;;;15.07;12.15;;;;;;;;;;5135545;27;20548;-78
2022/04/23 04:44:34;;;;;;;13.85;12.00;;;;;;;;;;5116468;27;20488;-78
2022/04/23 04:47:09;;;;;;;15.10;12.23;;;;;;;;;;5132787;27;20287;-78
2022/04/23 04:49:37;;;;;;;14.10;11.68;;;;;;;;;;5102395;27;20039;-78
2022/04/23 04:52:05;;;;;;;15.07;12.88;;;;;;;;;;5121904;27;20497;-78
2022/04/23 04:54:35;;;;;;;15.63;12.95;;;;;;;;;;5136146;27;20509;-78
2022/04/23 04:57:05;;;;;;;14.50;12.32;;;;;;;;;;5139868;27;21851;-78
2022/04/23 04:59:32;;;;;;;15.15;12.15;;;;;;;;;;5117589;27;20035;-78
2022/04/23 05:02:00;;;;;;;13.10;11.70;;;;;;;;;;5109416;27;20070;-77
2022/04/23 05:04:28;;;;;;;14.57;12.35;;;;;;;;;;5142115;27;20130;-78
2022/04/23 05:06:56;;;;;;;12.38;10.48;;;;;;;;;;5129287;27;20046;-78
2022/04/23 05:09:23;;;;;;;15.07;11.43;;;;;;;;;;5138791;27;20043;-78
2022/04/23 05:11:51;;;;;;;14.73;12.05;;;;;;;;;;5137503;27;20153;-79
2022/04/23 05:14:18;;;;;;;16.10;13.30;;;;;;;;;;5106126;27;20125;-78
2022/04/23 05:16:46;;;;;;;12.95;10.98;;;;;;;;;;5143249;27;20031;-78
2022/04/23 05:19:14;;;;;;;13.77;10.93;;;;;;;;;;5102552;27;20066;-78
2022/04/23 05:21:42;;;;;;;20.63;13.40;;;;;;;;;;5117426;27;20099;-78
2022/04/23 05:24:10;;;;;;;13.75;10.63;;;;;;;;;;5110379;27;20046;-79
2022/04/23 05:26:38;;;;;;;13.02;11.13;;;;;;;;;;5121739;27;20031;-78
2022/04/23 05:29:05;;;;;;;11.93;10.68;;;;;;;;;;5137442;27;20071;-79
2022/04/23 05:31:33;;;;;;;12.00;10.20;;;;;;;;;;5120112;27;20434;-78
2022/04/23 05:34:00;;;;;;;13.60;11.88;;;;;;;;;;5130030;27;20490;-77
2022/04/23 05:36:27;;;;;;;15.05;11.10;;;;;;;;;;5103013;27;20503;-78
2022/04/23 05:38:55;;;;;;;15.82;12.75;;;;;;;;;;5142633;27;20045;-78
2022/04/23 05:41:23;;;;;;;13.15;11.65;;;;;;;;;;5140698;27;20043;-78
2022/04/23 05:43:51;;;;;;;16.45;12.25;;;;;;;;;;5140039;27;20063;-78
2022/04/23 05:46:19;;;;;;;14.60;11.57;;;;;;;;;;5136262;27;20031;-78
2022/04/23 05:48:46;;;;;;;15.00;12.30;;;;;;;;;;5126801;27;20429;-78
2022/04/23 05:51:14;;;;;;;13.25;11.32;;;;;;;;;;5116159;27;20047;-78
2022/04/23 05:53:41;;;;;;;12.93;11.38;;;;;;;;;;5141178;27;20050;-78
2022/04/23 05:56:12;;;;;;;14.82;11.52;;;;;;;;;;5105565;27;20507;-78
2022/04/23 05:58:39;;;;;;;14.82;11.82;;;;;;;;;;5124516;27;20045;-78
2022/04/23 06:01:07;;;;;;;13.18;10.45;;;;;;;;;;5123483;27;20044;-78
2022/04/23 06:03:34;;;;;;;12.80;11.40;;;;;;;;;;5122464;27;20050;-78
2022/04/23 06:06:02;;;;;;;11.40;10.25;;;;;;;;;;5141622;27;20444;-78
2022/04/23 06:08:29;;;;;;;13.02;10.70;;;;;;;;;;5139077;27;20035;-78
2022/04/23 06:10:57;;;;;;;11.63;9.93;;;;;;;;;;5141285;27;20035;-78
2022/04/23 06:13:25;;;;;;;13.23;10.35;;;;;;;;;;5109400;27;20137;-78
2022/04/23 06:15:52;;;;;;;10.82;9.73;;;;;;;;;;5133878;27;20042;-79
2022/04/23 06:18:20;;;;;;;11.80;10.00;;;;;;;;;;5117935;27;20047;-79
2022/04/23 06:20:47;;;;;;;10.88;9.57;;;;;;;;;;5128654;27;20035;-78
2022/04/23 06:23:14;;;;;;;9.55;7.55;;;;;;;;;;5137377;27;20069;-79
2022/04/23 06:25:42;;;;;;;10.40;9.30;;;;;;;;;;5145335;27;20039;-79
2022/04/23 06:28:10;;;;;;;12.75;10.05;;;;;;;;;;5114974;27;20046;-78
2022/04/23 06:30:38;;;;;;;12.85;9.77;;;;;;;;;;5124401;27;20041;-78
2022/04/23 06:33:06;;;;;;;12.30;9.45;;;;;;;;;;5131176;27;20089;-78
2022/04/23 06:35:34;;;;;;;10.70;9.13;;;;;;;;;;5141058;27;20047;-79
2022/04/23 06:38:02;;;;;;;8.70;7.90;;;;;;;;;;5111288;27;20503;-78
2022/04/23 06:40:29;;;;;;;8.13;7.35;;;;;;;;;;5132344;27;20089;-79
2022/04/23 06:42:57;;;;;;;10.00;9.00;;;;;;;;;;5143939;27;20098;-78
2022/04/23 06:45:32;;;;;;;8.60;7.70;;;;;;;;;;5120695;27;20038;-78
2022/04/23 06:48:04;;;;;;;9.77;8.25;;;;;;;;;;5116504;27;20078;-79
2022/04/23 06:50:36;;;;;;;9.35;8.15;;;;;;;;;;5108337;27;20051;-78
2022/04/23 06:53:04;;;;;;;10.52;9.43;;;;;;;;;;5135912;27;20042;-78
2022/04/23 06:55:32;;;;;;;10.45;8.93;;;;;;;;;;5136754;27;20131;-78
2022/04/23 06:57:59;;;;;;;9.88;8.00;;;;;;;;;;5103543;27;20039;-79
2022/04/23 07:00:27;;;;;;;9.35;8.45;;;;;;;;;;5136226;27;20041;-78
2022/04/23 07:02:59;;;;;;;9.10;8.20;;;;;;;;;;5136178;27;20042;-78
2022/04/23 07:05:26;;;;;;;9.57;8.32;;;;;;;;;;5118286;27;20054;-78
2022/04/23 07:07:55;;;;;;;10.23;8.07;;;;;;;;;;5127310;27;20114;-78
2022/04/23 07:10:23;;;;;;;9.30;8.45;;;;;;;;;;5132220;27;20039;-78
2022/04/23 07:12:52;;;;;;;8.27;7.50;;;;;;;;;;5121233;27;20464;-78
2022/04/23 07:15:20;;;;;;;8.63;7.82;;;;;;;;;;5138234;27;20055;-78
2022/04/23 07:17:47;;;;;;;8.45;7.63;;;;;;;;;;5125839;27;20039;-77
2022/04/23 07:20:19;;;;;;;7.88;7.13;;;;;;;;;;5082349;27;20035;-78
2022/04/23 07:25:34;;;;;;;7.57;6.75;;;;;;;;;;5128350;27;20034;-78
2022/04/23 07:28:02;;;;;;;8.48;7.10;;;;;;;;;;5112473;27;20410;-78
2022/04/23 07:30:30;;;;;;;9.85;6.85;;;;;;;;;;5131354;27;20144;-77
2022/04/23 07:32:58;;;;;;;9.20;5.97;;;;;;;;;;5121637;27;20043;-79
2022/04/23 07:38:19;;;;;;;6.18;5.57;;;;;;;;;;5134244;27;20061;-78
2022/04/23 07:40:51;;;;;;;6.30;5.70;;;;;;;;;;5130292;27;21136;-77
2022/04/23 07:43:19;;;;;;;5.70;5.20;;;;;;;;;;5132379;27;20049;-79
2022/04/23 07:45:47;;;;;;;5.25;4.82;;;;;;;;;;5098516;27;20046;-78
2022/04/23 07:48:16;;;;;;;5.22;4.72;;;;;;;;;;5138550;27;20039;-78
2022/04/23 07:50:43;;;;;;;5.03;4.63;;;;;;;;;;5138559;27;20069;-78
2022/04/23 07:53:12;;;;;;;5.72;5.22;;;;;;;;;;5113745;27;20149;-77
2022/04/23 07:55:40;;;;;;;5.28;4.88;;;;;;;;;;5115046;27;20140;-77
2022/04/23 07:58:11;;;;;;;6.32;5.72;;;;;;;;;;5118171;27;20043;-77
2022/04/23 08:00:40;;;;;;;6.07;5.47;;;;;;;;;;5120772;27;20095;-77
2022/04/23 08:03:08;;;;;;;4.95;4.55;;;;;;;;;;5136642;27;20121;-78
2022/04/23 08:05:37;;;;;;;6.07;4.80;;;;;;;;;;5115835;27;20593;-78
2022/04/23 08:08:05;;;;;;;5.07;4.68;;;;;;;;;;5131509;27;20120;-77
2022/04/23 08:10:33;;;;;;;4.65;4.30;;;;;;;;;;5110164;27;20121;-77
2022/04/23 08:13:00;;;;;;;5.60;5.10;;;;;;;;;;5114841;27;20035;-77
2022/04/23 08:15:28;;;;;;;5.47;4.97;;;;;;;;;;5134254;27;20075;-77
2022/04/23 08:17:55;;;;;;;6.45;4.82;;;;;;;;;;5121081;27;20577;-77
2022/04/23 08:20:23;;;;;;;7.90;6.30;;;;;;;;;;5106104;27;20130;-77
2022/04/23 08:22:54;;;;;;;11.60;9.35;;;;;;;;;;5106953;27;20039;-77
2022/04/23 08:25:21;;;;;;;5.38;4.88;;;;;;;;;;5125765;27;20107;-77
2022/04/23 08:30:34;;;;;;;5.80;5.30;;;;;;;;;;5128924;27;20167;-77
2022/04/23 08:30:43;;;;;;;6.00;4.90;;;;;;;;;;5125197;27;20043;-78
2022/04/23 08:33:11;;;;;;;8.43;5.35;;;;;;;;;;5123671;27;20581;-78
2022/04/23 08:35:39;;;;;;;4.93;4.53;;;;;;;;;;5111694;27;20042;-76
2022/04/23 08:38:07;;;;;;;5.70;5.20;;;;;;;;;;5111827;27;20047;-79
2022/04/23 08:40:41;;;;;;;4.85;4.45;;;;;;;;;;5132447;27;20395;-82
2022/04/23 08:43:09;;;;;;;5.22;4.82;;;;;;;;;;5100521;27;20042;-81
2022/04/23 08:45:37;;;;;;;7.60;6.90;;;;;;;;;;5117359;27;20042;-76
2022/04/23 08:48:08;;;;;;;;;;;;;;;;;;5120659;27;20054;-76
2022/04/23 08:50:36;;;;;;;5.75;5.25;;;;;;;;;;5135970;27;19930;-78
2022/04/23 08:53:07;;;;;;;5.00;4.60;;;;;;;;;;5138805;27;20054;-78
2022/04/23 08:55:35;;;;;;;5.03;4.63;;;;;;;;;;5133145;27;20092;-78
2022/04/23 08:58:02;;;;;;;5.15;4.65;;;;;;;;;;5130752;27;20122;-77
2022/04/23 09:00:29;;;;;;;4.68;4.28;;;;;;;;;;5084495;27;20047;-79
2022/04/23 09:02:57;;;;;;;5.72;4.47;;;;;;;;;;5122724;27;20184;-78
2022/04/23 09:05:27;;;;;;;4.70;4.30;;;;;;;;;;5142939;27;20061;-78
2022/04/23 09:07:56;;;;;;;4.35;3.95;;;;;;;;;;5135086;27;20118;-78
2022/04/23 09:10:46;;;;;;;3.88;3.58;;;;;;;;;;5113955;27;20051;-80
2022/04/23 09:13:25;;;;;;;5.55;5.05;;;;;;;;;;5116043;28;20106;-77
2022/04/23 09:24:46;;;;;;;11.15;9.30;;;;;;;;;;5138343;27;20444;-77
2022/04/23 09:27:14;;;;;;;18.85;14.73;;;;;;;;;;5136677;27;20039;-77
2022/04/23 09:29:42;;;;;;;11.52;9.50;;;;;;;;;;5119206;28;20043;-76
2022/04/23 09:32:19;;;;;;;11.60;10.32;;;;;;;;;;5114358;27;20120;-77
2022/04/23 09:34:47;;;;;;;9.93;9.02;;;;;;;;;;5129052;27;20038;-78
2022/04/23 09:38:11;;;;;;;11.65;10.45;;;;;;;;;;5144334;27;20046;-77
2022/04/23 09:40:21;;;;;;;13.77;12.38;;;;;;;;;;5133880;27;20506;-78
2022/04/23 09:42:56;;;;;;;12.07;10.77;;;;;;;;;;5114893;27;20039;-77
2022/04/23 09:45:28;;;;;;;11.73;10.00;;;;;;;;;;5139135;27;20035;-77
2022/04/23 09:48:16;;;;;;;10.52;9.52;;;;;;;;;;5120821;27;20126;-78
2022/04/23 09:50:45;;;;;;;9.40;8.43;;;;;;;;;;5120623;27;20076;-78
2022/04/23 09:53:14;;;;;;;9.40;8.43;;;;;;;;;;5132158;27;20038;-78
2022/04/23 09:55:41;;;;;;;9.43;8.32;;;;;;;;;;5139423;27;20674;-78
2022/04/23 09:58:10;;;;;;;11.23;9.43;;;;;;;;;;5126961;27;20042;-77
2022/04/23 10:00:38;;;;;;;12.32;10.38;;;;;;;;;;5138705;27;20448;-77
2022/04/23 10:03:06;;;;;;;12.95;11.65;;;;;;;;;;5112991;27;20042;-78
2022/04/23 10:05:53;;;;;;;13.70;12.20;;;;;;;;;;5141992;27;20066;-77
2022/04/23 10:08:41;;;;;;;11.00;9.80;;;;;;;;;;5138599;27;20050;-77
2022/04/23 10:11:12;;;;;;;14.13;10.88;;;;;;;;;;5124820;27;20091;-78
2022/04/23 10:13:40;;;;;;;12.27;11.00;;;;;;;;;;5142284;27;20092;-77
2022/04/23 10:16:10;;;;;;;10.10;9.10;;;;;;;;;;5135148;27;20031;-78
2022/04/23 10:18:38;;;;;;;11.20;9.98;;;;;;;;;;5138548;27;20042;-78
2022/04/23 10:21:10;;;;;;;9.68;8.68;;;;;;;;;;5143720;27;20039;-78
2022/04/23 10:23:50;;;;;;;11.80;10.57;;;;;;;;;;5137571;27;20034;-79
2022/04/23 10:26:38;;;;;;;10.70;9.60;;;;;;;;;;5127295;27;20050;-78
2022/04/23 10:29:09;;;;;;;11.38;9.85;;;;;;;;;;5141261;27;20161;-78
2022/04/23 10:31:37;;;;;;;11.50;10.30;;;;;;;;;;5120813;27;20047;-78
2022/04/23 10:34:05;;;;;;;11.40;9.80;;;;;;;;;;5104978;27;20783;-79
2022/04/23 10:36:32;;;;;;;9.45;8.50;;;;;;;;;;5139361;27;20077;-80
2022/04/23 10:39:29;;;;;;;10.10;9.07;;;;;;;;;;5144111;27;20458;-79
2022/04/23 10:41:58;;;;;;;8.48;7.68;;;;;;;;;;5127189;27;20039;-78
2022/04/23 10:44:31;;;;;;;10.20;9.07;;;;;;;;;;5134070;27;20119;-79
2022/04/23 10:47:14;;;;;;;9.73;8.73;;;;;;;;;;5138118;27;20092;-78
2022/04/23 10:49:43;;;;;;;7.78;7.03;;;;;;;;;;5117668;27;20050;-79
2022/04/23 10:52:10;;;;;;;8.88;7.82;;;;;;;;;;5145902;27;20129;-80
2022/04/23 10:54:40;;;;;;;7.22;6.53;;;;;;;;;;5149627;27;20084;-79
2022/04/23 10:57:08;;;;;;;6.78;6.07;;;;;;;;;;5126199;27;20114;-78
2022/04/23 10:59:48;;;;;;;7.75;6.97;;;;;;;;;;5140023;27;20048;-80
2022/04/23 11:02:23;;;;;;;8.40;7.20;;;;;;;;;;5145143;27;20026;-80
2022/04/23 11:13:31;;;;;;;8.30;7.50;;;;;;;;;;5142639;27;20565;-80
2022/04/23 11:16:09;;;;;;;10.15;9.05;;;;;;;;;;5144102;27;20921;-80
2022/04/23 11:18:37;;;;;;;10.38;7.70;;;;;;;;;;5125324;27;20049;-80
2022/04/23 11:21:06;;;;;;;8.25;7.45;;;;;;;;;;5123342;27;20122;-80
2022/04/23 11:23:35;;;;;;;8.73;7.90;;;;;;;;;;5139612;27;20482;-79
2022/04/23 11:26:03;;;;;;;9.38;8.43;;;;;;;;;;5142629;27;20130;-79
2022/04/23 11:28:30;;;;;;;6.18;5.57;;;;;;;;;;5141731;27;20514;-79
2022/04/23 11:31:08;;;;;;;8.52;7.75;;;;;;;;;;5143348;27;20035;-78
2022/04/23 11:33:36;;;;;;;8.48;7.63;;;;;;;;;;5136554;27;20470;-77
2022/04/23 11:36:04;;;;;;;9.35;8.40;;;;;;;;;;5124888;27;20446;-78
2022/04/23 11:38:31;;;;;;;8.18;7.40;;;;;;;;;;5139477;27;20264;-77
2022/04/23 11:40:59;;;;;;;9.80;8.80;;;;;;;;;;5125262;27;20062;-79
2022/04/23 11:43:30;;;;;;;8.13;7.40;;;;;;;;;;5140604;27;20118;-79
2022/04/23 11:46:01;;;;;;;8.68;7.53;;;;;;;;;;5141808;27;20039;-79
2022/04/23 11:48:39;;;;;;;7.40;6.80;;;;;;;;;;5139079;27;20050;-79
2022/04/23 11:51:06;;;;;;;7.72;6.93;;;;;;;;;;5121329;27;20055;-79
2022/04/23 11:53:52;;;;;;;6.85;6.15;;;;;;;;;;5141010;27;20043;-79
2022/04/23 11:56:23;;;;;;;6.60;6.00;;;;;;;;;;5104776;27;20100;-79
2022/04/23 11:58:56;;;;;;;8.35;7.55;;;;;;;;;;5119607;27;20157;-78
2022/04/23 12:01:26;;;;;;;7.47;6.78;;;;;;;;;;5119931;27;20043;-79
2022/04/23 12:03:55;;;;;;;7.32;6.60;;;;;;;;;;5135142;27;20117;-79
2022/04/23 12:06:23;;;;;;;5.30;4.80;;;;;;;;;;5117542;27;20073;-79
2022/04/23 12:08:51;;;;;;;7.18;6.57;;;;;;;;;;5106545;27;20104;-78
2022/04/23 12:11:22;;;;;;;7.32;6.63;;;;;;;;;;5139940;27;20570;-79
2022/04/23 12:13:50;;;;;;;6.32;5.82;;;;;;;;;;5112371;27;20140;-78
2022/04/23 12:16:31;;;;;;;6.30;5.80;;;;;;;;;;5133702;27;21097;-78
2022/04/23 12:19:03;;;;;;;6.65;6.00;;;;;;;;;;5115853;27;20050;-79
2022/04/23 12:21:31;;;;;;;7.35;6.65;;;;;;;;;;5134883;27;20030;-77
2022/04/23 12:23:59;;;;;;;8.52;7.40;;;;;;;;;;5117555;27;20039;-77
2022/04/23 12:26:35;;;;;;;7.78;7.07;;;;;;;;;;5098594;27;20053;-78
2022/04/23 12:43:37;;;;;;;8.18;7.47;;;;;;;;;;5111992;27;20042;-77
2022/04/23 12:46:06;;;;;;;8.02;7.25;;;;;;;;;;5079931;28;20562;-78
2022/04/23 12:48:35;;;;;;;8.38;7.63;;;;;;;;;;5117696;27;20047;-78
2022/04/23 12:51:06;;;;;;;12.32;10.10;;;;;;;;;;5084634;27;20169;-78
2022/04/23 12:53:35;;;;;;;10.90;9.82;;;;;;;;;;5093657;27;20073;-77
2022/04/23 12:56:06;;;;;;;11.15;9.77;;;;;;;;;;5087496;27;20047;-78
2022/04/23 12:58:33;;;;;;;9.70;8.80;;;;;;;;;;5095540;27;20154;-78
2022/04/23 13:01:01;;;;;;;9.68;8.05;;;;;;;;;;5128220;27;20070;-78
2022/04/23 13:03:35;;;;;;;10.77;9.73;;;;;;;;;;5127015;27;20494;-77
2022/04/23 13:06:04;;;;;;;9.77;8.77;;;;;;;;;;5124741;27;20039;-76
2022/04/23 13:14:15;;;;;;;8.75;7.95;;;;;;;;;;5108625;27;20086;-77
2022/04/23 13:16:44;;;;;;;9.73;8.75;;;;;;;;;;5129379;27;20602;-77
2022/04/23 13:19:18;;;;;;;9.45;8.48;;;;;;;;;;5125264;27;20047;-78
2022/04/23 13:21:46;;;;;;;9.40;8.50;;;;;;;;;;5126310;27;20130;-77
2022/04/23 13:24:13;;;;;;;8.73;8.00;;;;;;;;;;5128332;27;20044;-79
2022/04/23 13:26:44;;;;;;;8.23;7.43;;;;;;;;;;5092055;27;20042;-78
2022/04/23 13:29:11;;;;;;;8.93;8.13;;;;;;;;;;5127963;27;20498;-78
2022/04/23 13:31:39;;;;;;;8.38;7.55;;;;;;;;;;5125045;27;20043;-78
2022/04/23 13:34:07;;;;;;;8.07;7.38;;;;;;;;;;5133281;27;20022;-78
2022/04/23 13:36:34;;;;;;;8.55;7.75;;;;;;;;;;5123464;27;20027;-79
2022/04/23 13:39:02;;;;;;;9.77;7.13;;;;;;;;;;5128692;27;20541;-78
2022/04/23 13:41:29;;;;;;;7.82;7.10;;;;;;;;;;5138687;27;20491;-79
2022/04/23 13:44:01;;;;;;;7.50;6.90;;;;;;;;;;5145814;27;20039;-79
2022/04/23 13:46:28;;;;;;;7.53;6.88;;;;;;;;;;5131507;27;20066;-77
2022/04/23 13:48:56;;;;;;;8.80;8.00;;;;;;;;;;5148410;27;20034;-78
2022/04/23 13:51:23;;;;;;;7.65;7.05;;;;;;;;;;5122770;27;20126;-77
2022/04/23 13:53:51;;;;;;;7.55;6.85;;;;;;;;;;5144596;27;20138;-79
2022/04/23 13:56:18;;;;;;;7.15;6.55;;;;;;;;;;5121042;27;20062;-79
2022/04/23 13:58:45;;;;;;;7.55;6.85;;;;;;;;;;5125259;27;20043;-77
2022/04/23 14:01:13;;;;;;;7.70;7.00;;;;;;;;;;5136694;22;20384;-78
2022/04/23 14:10:04;;;;;;;6.13;5.53;;;;;;;;;;5090132;28;20548;-78
2022/04/23 14:12:18;;;;;;;6.85;6.22;;;;;;;;;;5104368;28;20092;-78
2022/04/23 14:14:45;;;;;;;7.55;6.70;;;;;;;;;;5098169;28;20097;-78
2022/04/23 14:17:13;;;;;;;8.13;7.50;;;;;;;;;;5106916;28;20040;-78
2022/04/23 14:19:40;;;;;;;6.20;5.70;;;;;;;;;;5089924;28;20088;-78
2022/04/23 14:22:08;;;;;;;8.93;7.22;;;;;;;;;;5093672;28;20055;-78
2022/04/23 14:24:35;;;;;;;7.53;6.82;;;;;;;;;;5096801;28;20042;-78
2022/04/23 14:27:03;;;;;;;7.63;6.95;;;;;;;;;;5087260;28;20117;-78
2022/04/23 14:29:31;;;;;;;7.32;6.72;;;;;;;;;;5088483;28;20043;-78
2022/04/23 14:31:58;;;;;;;7.38;6.80;;;;;;;;;;5095256;28;20050;-78
2022/04/23 14:34:26;;;;;;;8.10;7.30;;;;;;;;;;5071059;28;20072;-78
2022/04/23 14:36:53;;;;;;;7.97;7.38;;;;;;;;;;5088733;28;20488;-78
2022/04/23 14:39:20;;;;;;;7.88;7.18;;;;;;;;;;5093164;28;20728;-78
2022/04/23 14:41:48;;;;;;;9.45;8.45;;;;;;;;;;5087688;28;20040;-78
2022/04/23 14:44:16;;;;;;;7.80;7.20;;;;;;;;;;5071383;28;20035;-78
2022/04/23 14:46:43;;;;;;;11.02;9.93;;;;;;;;;;5090522;28;20040;-78
2022/04/23 14:49:11;;;;;;;11.60;10.38;;;;;;;;;;5067823;28;20495;-78
2022/04/23 14:54:27;;;;;;;8.85;8.13;;;;;;;;;;5069375;28;20121;-77
2022/04/23 14:56:55;;;;;;;8.77;7.88;;;;;;;;;;5087909;28;20079;-76
2022/04/23 14:59:22;;;;;;;11.13;10.10;;;;;;;;;;5086166;28;20047;-77
2022/04/23 15:01:50;;;;;;;8.98;7.43;;;;;;;;;;5086905;28;20051;-78
2022/04/23 15:04:17;;;;;;;7.22;6.68;;;;;;;;;;5070483;28;20376;-78
2022/04/23 15:06:47;;;;;;;7.90;7.20;;;;;;;;;;5086564;28;20443;-78
2022/04/23 15:09:14;;;;;;;8.27;7.50;;;;;;;;;;5089515;28;20514;-78
2022/04/23 15:11:41;;;;;;;8.63;7.35;;;;;;;;;;5087699;28;20079;-78
2022/04/23 15:14:09;;;;;;;7.50;6.90;;;;;;;;;;5085101;28;20051;-78
2022/04/23 15:16:37;;;;;;;7.57;6.88;;;;;;;;;;5086326;28;20066;-77
2022/04/23 15:19:05;;;;;;;7.03;6.43;;;;;;;;;;5086997;28;20036;-78
2022/04/23 15:21:32;;;;;;;7.65;6.95;;;;;;;;;;5082537;28;20040;-78
2022/04/23 15:24:00;;;;;;;6.50;6.00;;;;;;;;;;5081864;28;20047;-78
2022/04/23 15:26:27;;;;;;;6.47;5.97;;;;;;;;;;5087095;28;20048;-78
2022/04/23 15:28:55;;;;;;;6.95;6.35;;;;;;;;;;5086662;28;20036;-79
2022/04/23 15:31:22;;;;;;;6.53;5.97;;;;;;;;;;5087968;28;20547;-78
2022/04/23 15:33:50;;;;;;;7.60;6.90;;;;;;;;;;5087981;28;20036;-78
2022/04/23 15:36:19;;;;;;;6.32;5.82;;;;;;;;;;5087678;28;20036;-78
2022/04/23 15:38:46;;;;;;;5.53;5.13;;;;;;;;;;5086246;28;20040;-78
2022/04/23 15:41:14;;;;;;;6.78;6.20;;;;;;;;;;5087813;28;20040;-78
2022/04/23 15:43:41;;;;;;;7.25;6.65;;;;;;;;;;5085614;28;20090;-78